sensor_id;sensor_type;location;lat;lon;timestamp;P1;durP1;ratioP1;P2;durP2;ratioP2
5616;SDS011;2830;50.656;7.568;2023-01-08T00:01:07;11.07;;;1.80;;
5616;SDS011;2830;50.656;7.568;2023-01-08T00:03:36;9.50;;;1.80;;
5616;SDS011;2830;50.656;7.568;2023-01-08T00:06:04;11.70;;;2.33;;
5616;SDS011;2830;50.656;7.568;2023-01-08T00:08:33;12.13;;;1.83;;
5616;SDS011;2830;50.656;7.568;2023-01-08T00:11:00;10.03;;;2.20;;
5616;SDS011;2830;50.656;7.568;2023-01-08T00:13:27;9.47;;;2.10;;
5616;SDS011;2830;50.656;7.568;2023-01-08T00:15:54;11.90;;;2.23;;
5616;SDS011;2830;50.656;7.568;2023-01-08T00:18:21;10.40;;;2.33;;
5616;SDS011;2830;50.656;7.568;2023-01-08T00:20:49;9.57;;;2.30;;
5616;SDS011;2830;50.656;7.568;2023-01-08T00:23:17;9.93;;;2.50;;
5616;SDS011;2830;50.656;7.568;2023-01-08T00:25:44;8.90;;;2.20;;
5616;SDS011;2830;50.656;7.568;2023-01-08T00:28:12;10.43;;;2.17;;
5616;SDS011;2830;50.656;7.568;2023-01-08T00:30:40;10.17;;;2.20;;
5616;SDS011;2830;50.656;7.568;2023-01-08T00:33:07;9.30;;;2.00;;
5616;SDS011;2830;50.656;7.568;2023-01-08T00:35:36;10.50;;;2.33;;
5616;SDS011;2830;50.656;7.568;2023-01-08T00:38:03;9.63;;;2.40;;
5616;SDS011;2830;50.656;7.568;2023-01-08T00:40:31;9.33;;;2.00;;
5616;SDS011;2830;50.656;7.568;2023-01-08T00:42:59;8.70;;;1.80;;
5616;SDS011;2830;50.656;7.568;2023-01-08T00:45:26;10.20;;;2.60;;
5616;SDS011;2830;50.656;7.568;2023-01-08T00:47:53;10.30;;;2.97;;
5616;SDS011;2830;50.656;7.568;2023-01-08T00:50:19;9.70;;;2.50;;
5616;SDS011;2830;50.656;7.568;2023-01-08T00:52:46;9.50;;;2.50;;
5616;SDS011;2830;50.656;7.568;2023-01-08T00:55:13;10.60;;;3.00;;
5616;SDS011;2830;50.656;7.568;2023-01-08T00:57:40;10.60;;;2.70;;
5616;SDS011;2830;50.656;7.568;2023-01-08T01:00:07;9.27;;;2.60;;
5616;SDS011;2830;50.656;7.568;2023-01-08T01:02:37;12.40;;;3.30;;
5616;SDS011;2830;50.656;7.568;2023-01-08T01:05:04;10.83;;;2.97;;
5616;SDS011;2830;50.656;7.568;2023-01-08T01:07:32;10.23;;;2.80;;
5616;SDS011;2830;50.656;7.568;2023-01-08T01:09:59;10.27;;;2.90;;
5616;SDS011;2830;50.656;7.568;2023-01-08T01:12:26;10.50;;;2.80;;
5616;SDS011;2830;50.656;7.568;2023-01-08T01:14:53;10.80;;;3.30;;
5616;SDS011;2830;50.656;7.568;2023-01-08T01:17:20;10.43;;;2.77;;
5616;SDS011;2830;50.656;7.568;2023-01-08T01:19:47;10.07;;;3.10;;
5616;SDS011;2830;50.656;7.568;2023-01-08T01:22:13;11.97;;;2.87;;
5616;SDS011;2830;50.656;7.568;2023-01-08T01:24:40;10.80;;;3.00;;
5616;SDS011;2830;50.656;7.568;2023-01-08T01:27:07;10.10;;;2.93;;
5616;SDS011;2830;50.656;7.568;2023-01-08T01:29:33;10.80;;;3.37;;
5616;SDS011;2830;50.656;7.568;2023-01-08T01:32:00;10.70;;;3.00;;
5616;SDS011;2830;50.656;7.568;2023-01-08T01:34:27;10.70;;;3.00;;
5616;SDS011;2830;50.656;7.568;2023-01-08T01:36:53;9.67;;;2.40;;
5616;SDS011;2830;50.656;7.568;2023-01-08T01:39:20;11.73;;;3.37;;
5616;SDS011;2830;50.656;7.568;2023-01-08T01:41:48;11.00;;;3.53;;
5616;SDS011;2830;50.656;7.568;2023-01-08T01:47:06;13.17;;;3.33;;
5616;SDS011;2830;50.656;7.568;2023-01-08T01:49:35;12.73;;;3.40;;
5616;SDS011;2830;50.656;7.568;2023-01-08T01:52:04;14.43;;;3.93;;
5616;SDS011;2830;50.656;7.568;2023-01-08T01:54:34;10.87;;;3.40;;
5616;SDS011;2830;50.656;7.568;2023-01-08T01:57:01;12.20;;;3.70;;
5616;SDS011;2830;50.656;7.568;2023-01-08T01:59:29;11.90;;;3.67;;
5616;SDS011;2830;50.656;7.568;2023-01-08T02:01:56;11.03;;;3.30;;
5616;SDS011;2830;50.656;7.568;2023-01-08T02:04:24;12.17;;;3.47;;
5616;SDS011;2830;50.656;7.568;2023-01-08T02:12:04;11.00;;;3.90;;
5616;SDS011;2830;50.656;7.568;2023-01-08T02:17:26;10.80;;;3.50;;
5616;SDS011;2830;50.656;7.568;2023-01-08T02:20:02;12.20;;;4.33;;
5616;SDS011;2830;50.656;7.568;2023-01-08T02:22:42;13.60;;;4.23;;
5616;SDS011;2830;50.656;7.568;2023-01-08T02:25:19;12.00;;;3.97;;
5616;SDS011;2830;50.656;7.568;2023-01-08T02:28:08;11.40;;;3.43;;
5616;SDS011;2830;50.656;7.568;2023-01-08T02:30:37;14.33;;;3.80;;
5616;SDS011;2830;50.656;7.568;2023-01-08T02:33:06;10.73;;;3.70;;
5616;SDS011;2830;50.656;7.568;2023-01-08T02:35:36;12.33;;;4.03;;
5616;SDS011;2830;50.656;7.568;2023-01-08T02:38:07;12.90;;;4.07;;
5616;SDS011;2830;50.656;7.568;2023-01-08T02:40:46;11.47;;;3.80;;
5616;SDS011;2830;50.656;7.568;2023-01-08T02:43:49;11.50;;;4.23;;
5616;SDS011;2830;50.656;7.568;2023-01-08T02:46:18;12.40;;;3.50;;
5616;SDS011;2830;50.656;7.568;2023-01-08T02:48:52;10.93;;;3.63;;
5616;SDS011;2830;50.656;7.568;2023-01-08T02:51:25;10.40;;;3.10;;
5616;SDS011;2830;50.656;7.568;2023-01-08T02:54:04;11.70;;;3.30;;
5616;SDS011;2830;50.656;7.568;2023-01-08T02:56:57;11.70;;;3.70;;
5616;SDS011;2830;50.656;7.568;2023-01-08T02:59:41;11.47;;;3.33;;
5616;SDS011;2830;50.656;7.568;2023-01-08T03:02:11;10.10;;;3.07;;
5616;SDS011;2830;50.656;7.568;2023-01-08T03:04:39;10.97;;;2.90;;
5616;SDS011;2830;50.656;7.568;2023-01-08T03:07:14;11.20;;;3.70;;
5616;SDS011;2830;50.656;7.568;2023-01-08T03:09:40;10.50;;;3.07;;
5616;SDS011;2830;50.656;7.568;2023-01-08T03:12:15;13.03;;;3.50;;
5616;SDS011;2830;50.656;7.568;2023-01-08T03:14:51;10.00;;;2.37;;
5616;SDS011;2830;50.656;7.568;2023-01-08T03:17:24;13.40;;;2.80;;
5616;SDS011;2830;50.656;7.568;2023-01-08T03:19:59;10.50;;;2.63;;
5616;SDS011;2830;50.656;7.568;2023-01-08T03:22:32;11.53;;;3.23;;
5616;SDS011;2830;50.656;7.568;2023-01-08T03:25:03;10.80;;;2.40;;
5616;SDS011;2830;50.656;7.568;2023-01-08T03:27:32;10.17;;;2.20;;
5616;SDS011;2830;50.656;7.568;2023-01-08T03:30:03;12.83;;;2.20;;
5616;SDS011;2830;50.656;7.568;2023-01-08T03:32:33;9.77;;;2.37;;
5616;SDS011;2830;50.656;7.568;2023-01-08T03:35:01;10.20;;;2.57;;
5616;SDS011;2830;50.656;7.568;2023-01-08T03:37:34;11.70;;;3.43;;
5616;SDS011;2830;50.656;7.568;2023-01-08T03:40:09;9.73;;;2.33;;
5616;SDS011;2830;50.656;7.568;2023-01-08T03:42:48;10.17;;;2.77;;
5616;SDS011;2830;50.656;7.568;2023-01-08T03:45:15;11.90;;;2.07;;
5616;SDS011;2830;50.656;7.568;2023-01-08T03:47:42;9.87;;;2.23;;
5616;SDS011;2830;50.656;7.568;2023-01-08T03:50:11;10.50;;;2.30;;
5616;SDS011;2830;50.656;7.568;2023-01-08T03:52:42;10.50;;;2.40;;
5616;SDS011;2830;50.656;7.568;2023-01-08T03:55:09;10.43;;;1.93;;
5616;SDS011;2830;50.656;7.568;2023-01-08T03:57:35;10.30;;;2.27;;
5616;SDS011;2830;50.656;7.568;2023-01-08T04:00:02;9.90;;;1.90;;
5616;SDS011;2830;50.656;7.568;2023-01-08T04:02:30;10.90;;;2.27;;
5616;SDS011;2830;50.656;7.568;2023-01-08T04:04:57;10.50;;;2.07;;
5616;SDS011;2830;50.656;7.568;2023-01-08T04:07:23;10.10;;;1.87;;
5616;SDS011;2830;50.656;7.568;2023-01-08T04:09:50;10.43;;;2.27;;
5616;SDS011;2830;50.656;7.568;2023-01-08T04:12:19;10.60;;;2.00;;
5616;SDS011;2830;50.656;7.568;2023-01-08T04:14:45;9.73;;;1.53;;
5616;SDS011;2830;50.656;7.568;2023-01-08T04:17:12;9.97;;;1.67;;
5616;SDS011;2830;50.656;7.568;2023-01-08T04:19:39;10.87;;;1.93;;
5616;SDS011;2830;50.656;7.568;2023-01-08T04:22:08;10.23;;;2.13;;
5616;SDS011;2830;50.656;7.568;2023-01-08T04:24:35;10.63;;;1.97;;
5616;SDS011;2830;50.656;7.568;2023-01-08T04:27:02;10.80;;;2.10;;
5616;SDS011;2830;50.656;7.568;2023-01-08T04:29:29;11.40;;;1.63;;
5616;SDS011;2830;50.656;7.568;2023-01-08T04:31:55;11.00;;;1.83;;
5616;SDS011;2830;50.656;7.568;2023-01-08T04:34:22;10.70;;;2.00;;
5616;SDS011;2830;50.656;7.568;2023-01-08T04:36:49;11.00;;;1.97;;
5616;SDS011;2830;50.656;7.568;2023-01-08T04:39:15;10.77;;;2.03;;
5616;SDS011;2830;50.656;7.568;2023-01-08T04:41:42;13.80;;;2.00;;
5616;SDS011;2830;50.656;7.568;2023-01-08T04:44:12;10.30;;;1.77;;
5616;SDS011;2830;50.656;7.568;2023-01-08T04:46:38;11.30;;;1.80;;
5616;SDS011;2830;50.656;7.568;2023-01-08T04:49:05;10.00;;;1.43;;
5616;SDS011;2830;50.656;7.568;2023-01-08T04:51:32;10.43;;;1.40;;
5616;SDS011;2830;50.656;7.568;2023-01-08T04:53:58;10.43;;;1.30;;
5616;SDS011;2830;50.656;7.568;2023-01-08T04:56:25;10.60;;;1.90;;
5616;SDS011;2830;50.656;7.568;2023-01-08T04:58:52;10.70;;;1.60;;
5616;SDS011;2830;50.656;7.568;2023-01-08T05:01:19;10.07;;;1.70;;
5616;SDS011;2830;50.656;7.568;2023-01-08T05:03:47;10.07;;;1.60;;
5616;SDS011;2830;50.656;7.568;2023-01-08T05:06:21;13.13;;;1.97;;
5616;SDS011;2830;50.656;7.568;2023-01-08T05:08:48;10.53;;;1.70;;
5616;SDS011;2830;50.656;7.568;2023-01-08T05:11:15;9.60;;;1.40;;
5616;SDS011;2830;50.656;7.568;2023-01-08T05:13:41;9.50;;;1.30;;
5616;SDS011;2830;50.656;7.568;2023-01-08T05:16:08;10.80;;;1.70;;
5616;SDS011;2830;50.656;7.568;2023-01-08T05:18:35;9.47;;;1.30;;
5616;SDS011;2830;50.656;7.568;2023-01-08T05:21:02;10.10;;;1.67;;
5616;SDS011;2830;50.656;7.568;2023-01-08T05:23:30;9.33;;;1.40;;
5616;SDS011;2830;50.656;7.568;2023-01-08T05:26:01;9.90;;;1.40;;
5616;SDS011;2830;50.656;7.568;2023-01-08T05:28:30;9.87;;;1.40;;
5616;SDS011;2830;50.656;7.568;2023-01-08T05:30:57;9.57;;;1.50;;
5616;SDS011;2830;50.656;7.568;2023-01-08T05:33:24;11.93;;;1.50;;
5616;SDS011;2830;50.656;7.568;2023-01-08T05:35:51;9.43;;;1.10;;
5616;SDS011;2830;50.656;7.568;2023-01-08T05:38:18;10.10;;;1.50;;
5616;SDS011;2830;50.656;7.568;2023-01-08T05:40:45;10.37;;;1.30;;
5616;SDS011;2830;50.656;7.568;2023-01-08T05:43:11;9.77;;;1.40;;
5616;SDS011;2830;50.656;7.568;2023-01-08T05:45:38;9.60;;;1.20;;
5616;SDS011;2830;50.656;7.568;2023-01-08T05:48:05;10.10;;;1.60;;
5616;SDS011;2830;50.656;7.568;2023-01-08T05:50:33;9.53;;;1.23;;
5616;SDS011;2830;50.656;7.568;2023-01-08T05:53:00;9.90;;;1.60;;
5616;SDS011;2830;50.656;7.568;2023-01-08T05:55:27;9.90;;;1.20;;
5616;SDS011;2830;50.656;7.568;2023-01-08T05:57:53;9.83;;;1.30;;
5616;SDS011;2830;50.656;7.568;2023-01-08T06:00:20;9.50;;;1.00;;
5616;SDS011;2830;50.656;7.568;2023-01-08T06:02:47;9.97;;;1.13;;
5616;SDS011;2830;50.656;7.568;2023-01-08T06:05:14;11.60;;;1.40;;
5616;SDS011;2830;50.656;7.568;2023-01-08T06:07:40;9.30;;;1.10;;
5616;SDS011;2830;50.656;7.568;2023-01-08T06:10:07;10.50;;;1.20;;
5616;SDS011;2830;50.656;7.568;2023-01-08T06:12:34;9.73;;;1.43;;
5616;SDS011;2830;50.656;7.568;2023-01-08T06:15:01;9.43;;;1.10;;
5616;SDS011;2830;50.656;7.568;2023-01-08T06:17:28;11.37;;;1.27;;
5616;SDS011;2830;50.656;7.568;2023-01-08T06:19:54;9.40;;;1.30;;
5616;SDS011;2830;50.656;7.568;2023-01-08T06:22:21;9.70;;;1.30;;
5616;SDS011;2830;50.656;7.568;2023-01-08T06:24:48;9.87;;;1.20;;
5616;SDS011;2830;50.656;7.568;2023-01-08T06:27:15;9.90;;;1.40;;
5616;SDS011;2830;50.656;7.568;2023-01-08T06:29:41;9.80;;;1.10;;
5616;SDS011;2830;50.656;7.568;2023-01-08T06:32:08;9.37;;;1.27;;
5616;SDS011;2830;50.656;7.568;2023-01-08T06:34:34;9.27;;;1.10;;
5616;SDS011;2830;50.656;7.568;2023-01-08T06:37:01;9.20;;;1.20;;
5616;SDS011;2830;50.656;7.568;2023-01-08T06:39:27;9.83;;;1.30;;
5616;SDS011;2830;50.656;7.568;2023-01-08T06:41:54;9.00;;;0.97;;
5616;SDS011;2830;50.656;7.568;2023-01-08T06:44:21;10.20;;;1.50;;
5616;SDS011;2830;50.656;7.568;2023-01-08T06:46:48;10.47;;;1.90;;
5616;SDS011;2830;50.656;7.568;2023-01-08T06:49:14;9.90;;;1.30;;
5616;SDS011;2830;50.656;7.568;2023-01-08T06:51:42;9.27;;;1.20;;
5616;SDS011;2830;50.656;7.568;2023-01-08T06:54:09;9.40;;;1.30;;
5616;SDS011;2830;50.656;7.568;2023-01-08T06:56:38;9.23;;;1.13;;
5616;SDS011;2830;50.656;7.568;2023-01-08T06:59:18;9.50;;;1.20;;
5616;SDS011;2830;50.656;7.568;2023-01-08T07:01:45;9.33;;;1.30;;
5616;SDS011;2830;50.656;7.568;2023-01-08T07:04:12;11.07;;;1.20;;
5616;SDS011;2830;50.656;7.568;2023-01-08T07:06:39;9.77;;;1.10;;
5616;SDS011;2830;50.656;7.568;2023-01-08T07:09:05;12.27;;;2.80;;
5616;SDS011;2830;50.656;7.568;2023-01-08T07:11:32;10.67;;;1.37;;
5616;SDS011;2830;50.656;7.568;2023-01-08T07:13:59;10.83;;;1.67;;
5616;SDS011;2830;50.656;7.568;2023-01-08T07:16:25;12.13;;;1.50;;
5616;SDS011;2830;50.656;7.568;2023-01-08T07:18:52;9.87;;;1.40;;
5616;SDS011;2830;50.656;7.568;2023-01-08T07:21:18;9.60;;;1.27;;
5616;SDS011;2830;50.656;7.568;2023-01-08T07:23:48;9.17;;;1.33;;
5616;SDS011;2830;50.656;7.568;2023-01-08T07:26:15;9.37;;;1.27;;
5616;SDS011;2830;50.656;7.568;2023-01-08T07:28:43;9.93;;;1.50;;
5616;SDS011;2830;50.656;7.568;2023-01-08T07:31:10;9.57;;;1.40;;
5616;SDS011;2830;50.656;7.568;2023-01-08T07:33:36;10.67;;;1.43;;
5616;SDS011;2830;50.656;7.568;2023-01-08T07:36:04;9.67;;;1.70;;
5616;SDS011;2830;50.656;7.568;2023-01-08T07:38:31;10.30;;;1.30;;
5616;SDS011;2830;50.656;7.568;2023-01-08T07:40:58;9.20;;;1.37;;
5616;SDS011;2830;50.656;7.568;2023-01-08T07:43:24;9.47;;;1.50;;
5616;SDS011;2830;50.656;7.568;2023-01-08T07:45:51;9.10;;;1.40;;
5616;SDS011;2830;50.656;7.568;2023-01-08T07:48:18;12.47;;;1.13;;
5616;SDS011;2830;50.656;7.568;2023-01-08T07:50:44;9.10;;;1.20;;
5616;SDS011;2830;50.656;7.568;2023-01-08T07:53:11;9.00;;;1.10;;
5616;SDS011;2830;50.656;7.568;2023-01-08T07:55:41;9.30;;;1.20;;
5616;SDS011;2830;50.656;7.568;2023-01-08T07:58:09;9.20;;;1.43;;
5616;SDS011;2830;50.656;7.568;2023-01-08T08:00:37;9.50;;;1.37;;
5616;SDS011;2830;50.656;7.568;2023-01-08T08:03:05;9.70;;;1.50;;
5616;SDS011;2830;50.656;7.568;2023-01-08T08:05:33;10.03;;;1.20;;
5616;SDS011;2830;50.656;7.568;2023-01-08T08:08:00;9.40;;;1.40;;
5616;SDS011;2830;50.656;7.568;2023-01-08T08:10:27;9.73;;;1.60;;
5616;SDS011;2830;50.656;7.568;2023-01-08T08:12:56;9.47;;;1.37;;
5616;SDS011;2830;50.656;7.568;2023-01-08T08:15:27;10.43;;;1.30;;
5616;SDS011;2830;50.656;7.568;2023-01-08T08:17:54;9.60;;;1.73;;
5616;SDS011;2830;50.656;7.568;2023-01-08T08:20:20;10.13;;;1.77;;
5616;SDS011;2830;50.656;7.568;2023-01-08T08:22:47;9.33;;;1.30;;
5616;SDS011;2830;50.656;7.568;2023-01-08T08:25:14;9.80;;;1.70;;
5616;SDS011;2830;50.656;7.568;2023-01-08T08:27:42;9.13;;;1.40;;
5616;SDS011;2830;50.656;7.568;2023-01-08T08:30:09;9.40;;;1.53;;
5616;SDS011;2830;50.656;7.568;2023-01-08T08:32:37;10.93;;;2.00;;
5616;SDS011;2830;50.656;7.568;2023-01-08T08:35:04;10.40;;;1.53;;
5616;SDS011;2830;50.656;7.568;2023-01-08T08:37:43;8.97;;;1.07;;
5616;SDS011;2830;50.656;7.568;2023-01-08T08:40:10;9.60;;;1.50;;
5616;SDS011;2830;50.656;7.568;2023-01-08T08:42:37;9.53;;;1.40;;
5616;SDS011;2830;50.656;7.568;2023-01-08T08:45:04;9.70;;;1.60;;
5616;SDS011;2830;50.656;7.568;2023-01-08T08:47:31;9.87;;;1.63;;
5616;SDS011;2830;50.656;7.568;2023-01-08T08:49:57;10.20;;;1.40;;
5616;SDS011;2830;50.656;7.568;2023-01-08T08:52:24;10.80;;;1.53;;
5616;SDS011;2830;50.656;7.568;2023-01-08T08:54:51;9.60;;;1.80;;
5616;SDS011;2830;50.656;7.568;2023-01-08T08:57:17;9.67;;;1.50;;
5616;SDS011;2830;50.656;7.568;2023-01-08T08:59:44;9.70;;;1.50;;
5616;SDS011;2830;50.656;7.568;2023-01-08T09:02:11;9.20;;;1.47;;
5616;SDS011;2830;50.656;7.568;2023-01-08T09:04:38;9.60;;;1.40;;
5616;SDS011;2830;50.656;7.568;2023-01-08T09:07:04;9.43;;;1.40;;
5616;SDS011;2830;50.656;7.568;2023-01-08T09:09:31;10.07;;;1.73;;
5616;SDS011;2830;50.656;7.568;2023-01-08T09:11:58;9.33;;;1.23;;
5616;SDS011;2830;50.656;7.568;2023-01-08T09:14:24;9.73;;;1.80;;
5616;SDS011;2830;50.656;7.568;2023-01-08T09:16:51;9.47;;;1.70;;
5616;SDS011;2830;50.656;7.568;2023-01-08T09:19:17;10.80;;;1.63;;
5616;SDS011;2830;50.656;7.568;2023-01-08T09:21:44;10.60;;;1.90;;
5616;SDS011;2830;50.656;7.568;2023-01-08T09:26:51;12.77;;;1.77;;
5616;SDS011;2830;50.656;7.568;2023-01-08T09:29:19;10.17;;;1.70;;
5616;SDS011;2830;50.656;7.568;2023-01-08T09:31:46;11.37;;;1.80;;
5616;SDS011;2830;50.656;7.568;2023-01-08T09:34:13;10.77;;;1.50;;
5616;SDS011;2830;50.656;7.568;2023-01-08T09:36:39;9.20;;;1.47;;
5616;SDS011;2830;50.656;7.568;2023-01-08T09:39:06;11.40;;;1.83;;
5616;SDS011;2830;50.656;7.568;2023-01-08T09:41:34;9.77;;;1.40;;
5616;SDS011;2830;50.656;7.568;2023-01-08T09:44:04;9.17;;;1.40;;
5616;SDS011;2830;50.656;7.568;2023-01-08T09:46:32;9.60;;;1.30;;
5616;SDS011;2830;50.656;7.568;2023-01-08T09:49:03;9.73;;;1.67;;
5616;SDS011;2830;50.656;7.568;2023-01-08T09:51:42;9.90;;;1.67;;
5616;SDS011;2830;50.656;7.568;2023-01-08T09:54:10;9.73;;;1.60;;
5616;SDS011;2830;50.656;7.568;2023-01-08T09:56:40;9.17;;;1.40;;
5616;SDS011;2830;50.656;7.568;2023-01-08T09:59:09;9.67;;;1.30;;
5616;SDS011;2830;50.656;7.568;2023-01-08T10:01:39;10.13;;;1.40;;
5616;SDS011;2830;50.656;7.568;2023-01-08T10:04:14;9.17;;;1.13;;
5616;SDS011;2830;50.656;7.568;2023-01-08T10:06:51;9.17;;;1.20;;
5616;SDS011;2830;50.656;7.568;2023-01-08T10:09:21;9.37;;;0.90;;
5616;SDS011;2830;50.656;7.568;2023-01-08T10:11:51;11.43;;;1.30;;
5616;SDS011;2830;50.656;7.568;2023-01-08T10:14:21;11.17;;;1.63;;
5616;SDS011;2830;50.656;7.568;2023-01-08T10:19:59;9.30;;;1.20;;
5616;SDS011;2830;50.656;7.568;2023-01-08T10:22:27;13.23;;;1.00;;
5616;SDS011;2830;50.656;7.568;2023-01-08T10:25:04;8.80;;;0.90;;
5616;SDS011;2830;50.656;7.568;2023-01-08T10:30:37;52.33;;;21.53;;
5616;SDS011;2830;50.656;7.568;2023-01-08T10:33:06;42.57;;;15.37;;
5616;SDS011;2830;50.656;7.568;2023-01-08T10:35:38;11.87;;;2.10;;
5616;SDS011;2830;50.656;7.568;2023-01-08T10:38:22;27.27;;;12.00;;
5616;SDS011;2830;50.656;7.568;2023-01-08T10:40:51;27.43;;;12.63;;
5616;SDS011;2830;50.656;7.568;2023-01-08T10:49:11;26.67;;;11.20;;
5616;SDS011;2830;50.656;7.568;2023-01-08T10:51:49;21.50;;;8.47;;
5616;SDS011;2830;50.656;7.568;2023-01-08T10:54:36;12.30;;;2.87;;
5616;SDS011;2830;50.656;7.568;2023-01-08T10:59:57;10.50;;;1.63;;
5616;SDS011;2830;50.656;7.568;2023-01-08T11:02:36;17.53;;;3.60;;
5616;SDS011;2830;50.656;7.568;2023-01-08T11:05:05;10.17;;;1.60;;
5616;SDS011;2830;50.656;7.568;2023-01-08T11:07:35;11.53;;;2.17;;
5616;SDS011;2830;50.656;7.568;2023-01-08T11:10:03;13.73;;;2.50;;
5616;SDS011;2830;50.656;7.568;2023-01-08T11:12:35;10.07;;;1.37;;
5616;SDS011;2830;50.656;7.568;2023-01-08T11:20:45;9.60;;;1.30;;
5616;SDS011;2830;50.656;7.568;2023-01-08T11:28:46;10.30;;;1.50;;
5616;SDS011;2830;50.656;7.568;2023-01-08T11:31:28;10.80;;;1.90;;
5616;SDS011;2830;50.656;7.568;2023-01-08T11:34:14;9.93;;;1.33;;
5616;SDS011;2830;50.656;7.568;2023-01-08T11:36:48;9.63;;;1.10;;
5616;SDS011;2830;50.656;7.568;2023-01-08T11:39:20;9.97;;;1.47;;
5616;SDS011;2830;50.656;7.568;2023-01-08T11:49:46;8.50;;;1.17;;
5616;SDS011;2830;50.656;7.568;2023-01-08T11:52:32;8.50;;;1.17;;
5616;SDS011;2830;50.656;7.568;2023-01-08T11:58:05;8.00;;;0.90;;
5616;SDS011;2830;50.656;7.568;2023-01-08T12:03:33;8.33;;;1.00;;
5616;SDS011;2830;50.656;7.568;2023-01-08T12:06:19;9.77;;;0.90;;
5616;SDS011;2830;50.656;7.568;2023-01-08T12:11:39;8.50;;;0.90;;
5616;SDS011;2830;50.656;7.568;2023-01-08T12:22:48;10.37;;;0.87;;
5616;SDS011;2830;50.656;7.568;2023-01-08T12:28:23;9.73;;;1.20;;
5616;SDS011;2830;50.656;7.568;2023-01-08T12:34:36;8.30;;;0.90;;
5616;SDS011;2830;50.656;7.568;2023-01-08T12:42:48;8.70;;;0.80;;
5616;SDS011;2830;50.656;7.568;2023-01-08T12:45:27;8.30;;;0.80;;
5616;SDS011;2830;50.656;7.568;2023-01-08T12:47:58;8.40;;;1.13;;
5616;SDS011;2830;50.656;7.568;2023-01-08T12:50:35;9.90;;;2.20;;
5616;SDS011;2830;50.656;7.568;2023-01-08T12:56:22;8.10;;;1.07;;
5616;SDS011;2830;50.656;7.568;2023-01-08T13:02:11;10.30;;;0.87;;
5616;SDS011;2830;50.656;7.568;2023-01-08T13:05:09;8.40;;;1.47;;
5616;SDS011;2830;50.656;7.568;2023-01-08T13:07:47;7.67;;;0.73;;
5616;SDS011;2830;50.656;7.568;2023-01-08T13:13:04;7.53;;;0.90;;
5616;SDS011;2830;50.656;7.568;2023-01-08T13:15:33;8.17;;;1.33;;
5616;SDS011;2830;50.656;7.568;2023-01-08T13:21:06;7.07;;;0.53;;
5616;SDS011;2830;50.656;7.568;2023-01-08T13:23:36;7.70;;;0.83;;
5616;SDS011;2830;50.656;7.568;2023-01-08T13:26:04;7.67;;;1.07;;
5616;SDS011;2830;50.656;7.568;2023-01-08T13:28:43;8.33;;;1.40;;
5616;SDS011;2830;50.656;7.568;2023-01-08T13:33:46;7.37;;;0.77;;
5616;SDS011;2830;50.656;7.568;2023-01-08T13:38:57;7.43;;;0.70;;
5616;SDS011;2830;50.656;7.568;2023-01-08T13:41:26;7.80;;;0.83;;
5616;SDS011;2830;50.656;7.568;2023-01-08T13:44:01;8.60;;;0.90;;
5616;SDS011;2830;50.656;7.568;2023-01-08T13:46:42;8.37;;;1.00;;
5616;SDS011;2830;50.656;7.568;2023-01-08T13:49:25;8.50;;;1.10;;
5616;SDS011;2830;50.656;7.568;2023-01-08T13:55:09;8.20;;;0.80;;
5616;SDS011;2830;50.656;7.568;2023-01-08T13:57:43;9.30;;;1.60;;
5616;SDS011;2830;50.656;7.568;2023-01-08T14:00:18;8.43;;;0.80;;
5616;SDS011;2830;50.656;7.568;2023-01-08T14:02:51;8.70;;;0.93;;
5616;SDS011;2830;50.656;7.568;2023-01-08T14:05:22;8.53;;;1.10;;
5616;SDS011;2830;50.656;7.568;2023-01-08T14:07:53;9.67;;;1.03;;
5616;SDS011;2830;50.656;7.568;2023-01-08T14:10:20;8.67;;;0.80;;
5616;SDS011;2830;50.656;7.568;2023-01-08T14:12:48;8.30;;;0.80;;
5616;SDS011;2830;50.656;7.568;2023-01-08T14:15:19;11.63;;;0.80;;
5616;SDS011;2830;50.656;7.568;2023-01-08T14:17:51;8.30;;;0.90;;
5616;SDS011;2830;50.656;7.568;2023-01-08T14:20:19;8.33;;;0.80;;
5616;SDS011;2830;50.656;7.568;2023-01-08T14:23:12;8.33;;;0.80;;
5616;SDS011;2830;50.656;7.568;2023-01-08T14:25:47;7.87;;;0.70;;
5616;SDS011;2830;50.656;7.568;2023-01-08T14:28:16;7.50;;;0.60;;
5616;SDS011;2830;50.656;7.568;2023-01-08T14:30:48;8.47;;;0.80;;
5616;SDS011;2830;50.656;7.568;2023-01-08T14:33:34;7.60;;;0.80;;
5616;SDS011;2830;50.656;7.568;2023-01-08T14:36:03;7.80;;;0.70;;
5616;SDS011;2830;50.656;7.568;2023-01-08T14:38:31;8.40;;;0.80;;
5616;SDS011;2830;50.656;7.568;2023-01-08T14:43:46;7.87;;;0.70;;
5616;SDS011;2830;50.656;7.568;2023-01-08T14:46:18;8.60;;;0.90;;
5616;SDS011;2830;50.656;7.568;2023-01-08T14:48:46;7.77;;;0.77;;
5616;SDS011;2830;50.656;7.568;2023-01-08T14:51:14;7.80;;;0.77;;
5616;SDS011;2830;50.656;7.568;2023-01-08T14:53:47;8.00;;;0.70;;
5616;SDS011;2830;50.656;7.568;2023-01-08T14:56:30;8.10;;;0.90;;
5616;SDS011;2830;50.656;7.568;2023-01-08T14:58:59;9.07;;;1.10;;
5616;SDS011;2830;50.656;7.568;2023-01-08T15:01:33;8.20;;;0.80;;
5616;SDS011;2830;50.656;7.568;2023-01-08T15:04:06;7.77;;;0.63;;
5616;SDS011;2830;50.656;7.568;2023-01-08T15:06:39;7.60;;;0.70;;
5616;SDS011;2830;50.656;7.568;2023-01-08T15:11:56;8.00;;;0.87;;
5616;SDS011;2830;50.656;7.568;2023-01-08T15:14:28;8.00;;;0.70;;
5616;SDS011;2830;50.656;7.568;2023-01-08T15:17:07;9.07;;;1.00;;
5616;SDS011;2830;50.656;7.568;2023-01-08T15:19:55;9.27;;;0.90;;
5616;SDS011;2830;50.656;7.568;2023-01-08T15:22:25;8.07;;;1.20;;
5616;SDS011;2830;50.656;7.568;2023-01-08T15:25:03;9.20;;;1.00;;
5616;SDS011;2830;50.656;7.568;2023-01-08T15:27:32;8.40;;;1.00;;
5616;SDS011;2830;50.656;7.568;2023-01-08T15:30:04;10.13;;;1.30;;
5616;SDS011;2830;50.656;7.568;2023-01-08T15:32:35;8.93;;;1.90;;
5616;SDS011;2830;50.656;7.568;2023-01-08T15:35:12;8.40;;;1.37;;
5616;SDS011;2830;50.656;7.568;2023-01-08T15:37:40;11.20;;;2.83;;
5616;SDS011;2830;50.656;7.568;2023-01-08T15:40:08;10.13;;;2.17;;
5616;SDS011;2830;50.656;7.568;2023-01-08T15:42:43;7.70;;;0.80;;
5616;SDS011;2830;50.656;7.568;2023-01-08T15:45:29;8.50;;;1.20;;
5616;SDS011;2830;50.656;7.568;2023-01-08T15:47:58;11.63;;;1.50;;
5616;SDS011;2830;50.656;7.568;2023-01-08T15:50:26;10.27;;;1.73;;
5616;SDS011;2830;50.656;7.568;2023-01-08T15:52:53;8.60;;;1.13;;
5616;SDS011;2830;50.656;7.568;2023-01-08T15:55:22;8.67;;;1.23;;
5616;SDS011;2830;50.656;7.568;2023-01-08T15:57:50;18.07;;;1.50;;
5616;SDS011;2830;50.656;7.568;2023-01-08T16:00:17;10.83;;;2.00;;
5616;SDS011;2830;50.656;7.568;2023-01-08T16:02:46;8.10;;;1.10;;
5616;SDS011;2830;50.656;7.568;2023-01-08T16:05:15;13.50;;;1.43;;
5616;SDS011;2830;50.656;7.568;2023-01-08T16:07:42;9.50;;;1.20;;
5616;SDS011;2830;50.656;7.568;2023-01-08T16:10:15;8.80;;;1.67;;
5616;SDS011;2830;50.656;7.568;2023-01-08T16:12:43;9.87;;;1.33;;
5616;SDS011;2830;50.656;7.568;2023-01-08T16:15:10;11.90;;;1.10;;
5616;SDS011;2830;50.656;7.568;2023-01-08T16:17:38;9.67;;;1.03;;
5616;SDS011;2830;50.656;7.568;2023-01-08T16:20:05;14.80;;;3.57;;
5616;SDS011;2830;50.656;7.568;2023-01-08T16:22:33;16.00;;;4.80;;
5616;SDS011;2830;50.656;7.568;2023-01-08T16:25:00;17.50;;;6.50;;
5616;SDS011;2830;50.656;7.568;2023-01-08T16:27:26;29.57;;;13.30;;
5616;SDS011;2830;50.656;7.568;2023-01-08T16:29:55;10.93;;;2.90;;
5616;SDS011;2830;50.656;7.568;2023-01-08T16:32:21;9.93;;;1.77;;
5616;SDS011;2830;50.656;7.568;2023-01-08T16:34:48;16.37;;;6.40;;
5616;SDS011;2830;50.656;7.568;2023-01-08T16:37:14;13.20;;;3.30;;
5616;SDS011;2830;50.656;7.568;2023-01-08T16:39:41;17.27;;;4.27;;
5616;SDS011;2830;50.656;7.568;2023-01-08T16:42:08;18.20;;;5.20;;
5616;SDS011;2830;50.656;7.568;2023-01-08T16:44:37;9.60;;;1.63;;
5616;SDS011;2830;50.656;7.568;2023-01-08T16:47:04;17.07;;;5.67;;
5616;SDS011;2830;50.656;7.568;2023-01-08T16:49:30;14.40;;;2.53;;
5616;SDS011;2830;50.656;7.568;2023-01-08T16:51:58;14.50;;;4.00;;
5616;SDS011;2830;50.656;7.568;2023-01-08T16:54:25;15.87;;;3.43;;
5616;SDS011;2830;50.656;7.568;2023-01-08T16:56:52;8.90;;;1.53;;
5616;SDS011;2830;50.656;7.568;2023-01-08T16:59:19;10.20;;;3.00;;
5616;SDS011;2830;50.656;7.568;2023-01-08T17:01:49;11.40;;;2.77;;
5616;SDS011;2830;50.656;7.568;2023-01-08T17:04:19;8.23;;;1.10;;
5616;SDS011;2830;50.656;7.568;2023-01-08T17:09:46;10.73;;;1.50;;